Latest Weather Observations for Giles*

IDW60801

Issued at 6:02 pm WST Monday 26 January 2015 (issued every 30 minutes, with the page automatically refreshed every 10 minutes)

About weather observations | Map of weather stations | Latest weather observations for WA | Other Formats
Station Details ID: 013017 Name: GILES METEOROLOGICAL OFFICE Lat: -25.03 Lon: 128.30 Height: 598.0 m
Data from the previous 72 hours. | See also: Recent months at Giles*

* Giles observations are collected in the South Australia time zone, which includes daylight saving in the summer period. Therefore, Rain since 9am value is with respect to South Australia local time.

Date/Time
WST
Temp
°C
App
Temp
°C
Dew
Point
Rel
Hum
%
Delta-T
°C
Wind Press
QNH
hPa
Press
MSL
hPa
Rain
since 9 am
mm
Dir
 
Spd
km/h
Gust
km/h
Spd
kts
Gust
kts
26/05:30pm 30.0 28.9 14.4 38 9.7 SSE 13 17 7 9 1010.8 1005.9 0.0
26/05:00pm 30.1 28.6 14.1 37 9.9 ENE 15 20 8 11 1009.8 1004.9 0.0
26/04:30pm 29.8 27.5 15.6 42 9.0 NE 22 30 12 16 1009.5 1004.6 0.0
26/04:00pm 32.8 29.7 10.3 25 13.3 SE 17 24 9 13 1009.5 1004.6 0.0
26/03:30pm 33.1 30.1 10.8 25 13.3 SE 17 22 9 12 1009.5 1004.6 0.0
26/03:00pm 34.1 33.0 10.7 24 14.0 WSW 7 13 4 7 1009.6 1004.7 0.0
26/02:30pm 33.6 31.9 11.1 25 13.5 NW 11 17 6 9 1009.9 1005.0 0.0
26/02:00pm 33.4 32.3 11.8 26 13.1 ENE 9 17 5 9 1010.3 1005.3 0.0
26/01:30pm 32.7 32.1 11.6 27 12.7 NNW 6 13 3 7 1010.8 1005.9 0.0
26/01:00pm 32.7 31.3 10.9 26 13.0 N 9 13 5 7 1011.1 1006.2 0.0
26/12:30pm 33.1 32.3 11.0 26 13.2 ENE 6 13 3 7 1011.5 1006.6 0.0
26/12:00pm 32.4 30.1 10.6 26 12.9 NNE 13 24 7 13 1012.0 1007.0 0.0
26/11:30am 32.8 29.0 9.2 23 13.7 N 19 26 10 14 1012.3 1007.3 0.0
26/11:00am 33.2 29.8 9.3 23 13.9 NE 17 30 9 16 1012.7 1007.8 0.0
26/10:30am 32.7 29.0 9.3 23 13.6 NNE 19 28 10 15 1013.1 1008.2 0.0
26/10:00am 32.4 27.8 8.2 22 13.8 ENE 22 30 12 16 1013.2 1008.3 0.0
26/09:00am 31.1 26.2 7.0 22 13.4 ENE 22 32 12 17 1013.6 1008.7 0.0
26/08:30am 30.7 24.6 5.0 19 13.8 ENE 26 37 14 20 1013.6 1008.7 0.0
26/08:00am 30.7 25.0 4.7 19 13.9 E 24 33 13 18 1013.6 1008.7 0.0
26/06:30am 27.5 22.6 4.0 22 12.2 SE 19 24 10 13 1013.3 1008.4 0.0
26/05:30am 26.7 22.1 3.7 22 11.8 SE 17 24 9 13 1012.5 1007.6 0.0
26/05:00am 26.6 22.0 3.9 23 11.7 ESE 17 24 9 13 1012.3 1007.3 0.0
26/04:30am 26.4 22.4 4.8 25 11.3 SE 15 20 8 11 1012.1 1007.1 0.0
26/04:00am 26.7 22.7 4.7 24 11.5 SE 15 19 8 10 1012.1 1007.1 0.0
26/03:30am 26.6 23.1 5.4 25 11.2 SE 13 17 7 9 1012.0 1007.0 0.0
26/03:00am 26.8 23.3 5.5 25 11.3 SE 13 17 7 9 1012.0 1007.0 0.0
26/02:30am 26.2 23.4 7.0 29 10.4 SE 11 13 6 7 1011.8 1006.9 0.0
26/02:00am 26.5 24.9 7.8 30 10.3 SE 6 7 3 4 1012.1 1007.1 0.0
26/01:30am 26.4 25.7 10.2 36 9.3 ESE 4 7 2 4 1012.1 1007.1 0.0
26/01:00am 26.9 24.5 7.1 28 10.8 SE 9 11 5 6 1012.2 1007.2 0.0
26/12:30am 28.0 23.3 6.1 25 11.8 E 20 30 11 16 1012.3 1007.3 0.0
26/12:00am 28.8 24.5 5.2 22 12.6 ESE 17 26 9 14 1012.4 1007.5 0.0
 
Date/Time
WST
Temp
°C
App
Temp
°C
Dew
Point
Rel
Hum
%
Delta-T
°C
Wind Press
QNH
hPa
Press
MSL
hPa
Rain
since 9 am
mm
Dir
 
Spd
km/h
Gust
km/h
Spd
kts
Gust
kts
25/11:30pm 28.8 26.0 7.0 25 12.0 SE 11 19 6 10 1012.5 1007.6 0.0
25/11:00pm 28.7 26.4 7.6 26 11.7 SE 9 13 5 7 1012.5 1007.6 0.0
25/10:30pm 29.1 25.5 6.9 24 12.2 ESE 15 20 8 11 1012.4 1007.5 0.0
25/10:00pm 29.3 24.8 7.0 24 12.3 SE 20 28 11 15 1012.0 1007.0 0.0
25/09:30pm 29.5 25.2 6.8 24 12.5 SE 19 24 10 13 1012.0 1007.0 0.0
25/09:00pm 29.6 23.0 6.1 22 12.8 SE 30 39 16 21 1010.8 1005.9 0.0
25/08:30pm 29.4 24.2 7.2 24 12.3 SE 24 35 13 19 1011.4 1006.5 0.0
25/08:00pm 29.3 25.1 8.1 26 11.9 SE 20 28 11 15 1011.8 1006.9 0.0
25/07:30pm 29.5 25.3 8.2 26 12.0 SSE 20 26 11 14 1012.0 1007.0 0.0
25/07:00pm 29.8 25.3 8.4 26 12.1 SSE 22 30 12 16 1012.0 1007.0 0.0
25/06:00pm 31.7 27.7 8.4 23 13.3 SSE 19 28 10 15 1011.5 1006.6 0.0
25/05:30pm 32.4 30.1 7.4 21 14.1 SSE 9 15 5 8 1011.5 1006.6 0.0
25/05:00pm 32.2 30.8 8.7 23 13.5 E 6 9 3 5 1011.6 1006.7 0.0
25/04:30pm 32.6 29.9 7.4 21 14.2 ENE 11 20 6 11 1011.7 1006.8 0.0
25/04:00pm 32.4 30.1 7.4 21 14.1 SE 9 13 5 7 1011.8 1006.9 0.0
25/03:30pm 32.3 30.3 7.2 21 14.1 SE 7 13 4 7 1012.1 1007.1 0.0
25/03:00pm 32.6 29.1 5.6 18 14.8 S 13 20 7 11 1012.2 1007.2 0.0
25/02:30pm 32.9 29.6 6.2 19 14.8 SSE 13 17 7 9 1012.3 1007.3 0.0
25/02:00pm 32.6 28.0 6.5 19 14.5 SE 20 28 11 15 1012.2 1007.2 0.0
25/01:30pm 32.5 27.0 4.0 16 15.2 SE 22 28 12 15 1012.4 1007.5 0.0
25/01:00pm 31.5 26.0 1.8 15 15.2 SE 20 32 11 17 1012.6 1007.7 0.0
25/12:30pm 30.4 26.2 5.7 21 13.4 SE 17 26 9 14 1013.0 1008.1 0.0
25/12:00pm 30.9 25.6 -0.5 13 15.4 SSE 17 22 9 12 1013.3 1008.4 0.0
25/11:30am 31.2 26.2 -1.5 12 15.8 S 15 22 8 12 1013.6 1008.7 0.0
25/11:00am 30.5 24.6 -2.5 11 15.6 SSE 19 28 10 15 1014.0 1009.1 0.0
25/10:30am 29.2 22.0 -2.3 13 14.8 SSE 26 35 14 19 1014.2 1009.3 0.0
25/10:00am 28.7 20.3 -2.3 13 14.5 S 32 41 17 22 1014.8 1009.9 0.0
25/09:30am 29.5 20.9 -4.5 10 15.4 SSW 32 41 17 22 1014.8 1009.9 0.0
25/09:19am 29.5 22.4 -4.5 10 15.4 SSW 24 48 13 26 1014.9 1010.0 0.0
25/09:00am 31.1 24.9 -0.4 13 15.5 SE 22 32 12 17 1013.9 1009.0 0.0
25/08:30am 29.2 25.8 1.9 17 13.8 SSE 9 15 5 8 1014.4 1009.5 0.0
25/08:00am 29.1 22.5 -3.1 12 14.9 SE 22 28 12 15 1013.5 1008.6 0.0
25/07:30am 29.4 22.2 -2.2 12 14.9 SE 26 35 14 19 1012.7 1007.8 0.0
25/07:00am 29.5 23.1 -1.9 13 14.9 SSE 22 32 12 17 1012.5 1007.6 0.0
25/06:30am 30.8 25.1 2.9 17 14.5 ESE 22 33 12 18 1011.4 1006.5 0.0
25/06:00am 29.5 23.8 2.9 18 13.7 ESE 22 30 12 16 1010.9 1006.0 0.0
25/05:30am 27.9 23.2 0.6 17 13.4 ESE 15 20 8 11 1010.4 1005.4 0.0
25/05:00am 28.0 23.0 1.2 17 13.3 E 17 24 9 13 1010.3 1005.3 0.0
25/04:30am 28.9 23.4 0.5 16 14.0 SE 19 28 10 15 1010.4 1005.4 0.0
25/04:00am 28.8 24.0 0.3 16 14.0 SE 15 22 8 12 1010.2 1005.2 0.0
25/03:30am 29.6 23.8 -0.3 14 14.6 E 20 28 11 15 1009.7 1004.8 0.0
25/03:00am 30.1 23.8 -0.7 13 15.0 ESE 22 30 12 16 1009.5 1004.6 0.0
25/02:30am 30.3 23.7 -0.6 13 15.1 ESE 24 35 13 19 1009.4 1004.5 0.0
25/02:00am 30.4 24.4 1.3 15 14.7 ESE 22 32 12 17 1009.3 1004.4 0.0
25/01:30am 30.7 24.6 2.7 17 14.5 ESE 24 32 13 17 1009.4 1004.5 0.0
25/01:00am 30.8 25.9 4.0 18 14.2 ESE 19 26 10 14 1009.5 1004.6 0.0
25/12:30am 30.4 25.9 4.1 19 13.9 ESE 17 22 9 12 1009.7 1004.8 0.0
25/12:00am 31.3 26.4 4.0 17 14.5 ESE 19 28 10 15 1010.0 1005.1 0.0
 
Date/Time
WST
Temp
°C
App
Temp
°C
Dew
Point
Rel
Hum
%
Delta-T
°C
Wind Press
QNH
hPa
Press
MSL
hPa
Rain
since 9 am
mm
Dir
 
Spd
km/h
Gust
km/h
Spd
kts
Gust
kts
24/11:30pm 32.3 26.7 3.3 16 15.3 SE 22 35 12 19 1010.0 1005.1 0.0
24/11:00pm 32.6 27.2 4.3 17 15.2 SE 22 32 12 17 1010.3 1005.3 0.0
24/10:30pm 32.9 27.5 4.6 17 15.3 SE 22 30 12 16 1010.3 1005.3 0.0
24/10:00pm 33.2 28.4 4.5 16 15.5 SE 19 28 10 15 1010.4 1005.4 0.0
24/09:30pm 33.2 28.4 4.9 17 15.4 SE 19 26 10 14 1010.4 1005.4 0.0
24/09:00pm 33.5 28.6 4.9 16 15.6 SE 20 30 11 16 1010.0 1005.1 0.0
24/08:30pm 33.2 29.8 5.9 18 15.1 S 13 17 7 9 1010.0 1005.1 0.0
24/08:00pm 34.4 30.8 5.1 16 16.1 S 13 17 7 9 1009.8 1004.9 0.0
24/07:30pm 35.0 29.6 4.7 15 16.6 S 22 33 12 18 1009.6 1004.7 0.0
24/07:00pm 35.6 28.6 3.9 14 17.2 S 30 43 16 23 1009.3 1004.4 0.0
24/06:30pm 36.0 29.4 4.1 13 17.4 S 28 41 15 22 1009.0 1004.0 0.0
24/06:05pm 36.8 30.1 3.8 13 17.9 S 28 48 15 26 1008.7 1003.7 0.0
24/06:00pm 37.1 31.2 4.1 13 18.1 S 24 32 13 17 1008.6 1003.6 0.0
24/05:30pm 37.8 30.3 3.5 12 18.7 S 32 44 17 24 1008.1 1003.2 0.0
24/05:00pm 38.8 31.3 3.7 11 19.3 SSW 32 43 17 23 1007.8 1002.9 0.0
24/04:30pm 39.6 32.9 3.4 11 19.8 SSW 28 43 15 23 1007.6 1002.6 0.0
24/04:00pm 39.0 33.6 2.7 10 19.7 S 20 35 11 19 1007.5 1002.5 0.0
24/03:30pm 39.2 33.9 3.2 11 19.7 S 20 28 11 15 1007.4 1002.4 0.0
24/03:00pm 40.1 34.2 3.9 11 20.1 SSW 24 43 13 23 1007.4 1002.4 0.0
24/02:30pm 41.6 35.2 3.4 9 21.2 SSW 26 41 14 22 1007.4 1002.4 0.0
24/02:00pm 40.5 35.0 4.1 11 20.3 SSE 22 39 12 21 1007.5 1002.5 0.0
24/01:47pm 41.1 34.4 3.7 10 20.7 SSW 28 48 15 26 1007.7 1002.8 0.0
24/01:30pm 40.3 33.5 3.2 10 20.4 SSW 28 41 15 22 1007.6 1002.6 0.0
24/01:00pm 41.1 35.0 2.9 9 21.0 SW 24 48 13 26 1007.8 1002.9 0.0
24/12:30pm 40.9 35.1 2.3 9 21.0 SW 22 39 12 21 1008.1 1003.2 0.0
24/12:00pm 41.1 35.6 2.0 9 21.2 SW 20 39 11 21 1008.2 1003.3 0.0
24/11:45am 40.3 34.1 2.0 9 20.6 SW 24 39 13 21 1008.3 1003.4 0.0
24/11:30am 38.9 35.3 5.0 12 19.0 WSW 13 30 7 16 1008.6 1003.6 0.0
24/11:09am 40.2 35.1 2.9 10 20.4 SSW 19 48 10 26 1008.6 1003.6 0.0
24/11:00am 39.3 34.8 4.2 11 19.5 S 17 30 9 16 1008.8 1003.8 0.0
24/10:30am 39.2 35.9 4.3 11 19.4 ENE 11 17 6 9 1009.2 1004.2 0.0
24/10:00am 38.8 34.9 3.3 11 19.4 SSW 13 26 7 14 1009.7 1004.8 0.0
24/09:30am 38.2 34.8 4.1 12 18.8 S 11 15 6 8 1009.8 1004.9 0.0
24/09:00am 37.3 34.4 4.5 13 18.1 E 9 17 5 9 1009.9 1005.0 0.0
24/08:30am 36.8 33.3 5.5 14 17.5 E 13 19 7 10 1009.9 1005.0 0.0
24/08:00am 36.2 31.9 5.2 14 17.2 E 17 24 9 13 1009.9 1005.0 0.0
24/07:30am 34.6 30.0 5.5 16 16.1 ENE 19 28 10 15 1010.0 1005.1 0.0
24/07:00am 33.0 28.9 6.1 18 14.9 E 17 26 9 14 1009.9 1005.0 0.0
24/06:30am 30.7 27.8 8.1 24 12.8 ESE 13 20 7 11 1009.8 1004.9 0.0
24/06:00am 28.6 25.3 8.0 27 11.5 ESE 15 19 8 10 1009.8 1004.9 0.0
24/05:30am 26.4 23.1 7.9 31 10.2 SE 15 17 8 9 1009.5 1004.6 0.0
24/05:00am 26.6 23.6 7.7 30 10.4 ESE 13 17 7 9 1009.0 1004.0 0.0
24/04:30am 27.2 23.7 7.4 28 10.9 E 15 19 8 10 1008.8 1003.8 0.0
24/04:00am 27.2 23.3 7.1 28 11.0 ESE 17 20 9 11 1008.6 1003.6 0.0
24/03:30am 27.5 24.0 7.0 27 11.2 SE 15 19 8 10 1008.6 1003.6 0.0
24/03:00am 27.7 24.1 6.8 26 11.4 SE 15 17 8 9 1008.6 1003.6 0.0
24/02:30am 28.8 25.2 6.7 24 12.1 ESE 15 20 8 11 1008.6 1003.6 0.0
24/02:00am 28.1 24.9 6.9 26 11.6 ESE 13 15 7 8 1008.8 1003.8 0.0
24/01:30am 29.0 25.3 6.5 24 12.3 E 15 20 8 11 1008.9 1003.9 0.0
24/01:00am 28.6 25.4 6.7 25 12.0 ESE 13 17 7 9 1008.9 1003.9 0.0
24/12:30am 29.1 25.5 6.7 24 12.3 SE 15 17 8 9 1009.2 1004.2 0.0
24/12:00am 29.4 25.7 6.3 23 12.6 ESE 15 17 8 9 1009.5 1004.6 0.0
 
Date/Time
WST
Temp
°C
App
Temp
°C
Dew
Point
Rel
Hum
%
Delta-T
°C
Wind Press
QNH
hPa
Press
MSL
hPa
Rain
since 9 am
mm
Dir
 
Spd
km/h
Gust
km/h
Spd
kts
Gust
kts
23/11:30pm 30.2 27.0 6.9 23 12.9 SE 13 15 7 8 1009.6 1004.7 0.0
23/11:00pm 31.2 27.9 6.6 21 13.6 ESE 13 15 7 8 1009.7 1004.8 0.0
23/10:30pm 32.9 28.7 5.9 18 14.9 SE 17 22 9 12 1009.7 1004.8 0.0
23/10:00pm 33.3 28.5 4.8 17 15.5 SSE 19 26 10 14 1009.8 1004.9 0.0
23/09:30pm 33.5 29.1 4.5 16 15.7 SSE 17 20 9 11 1009.8 1004.9 0.0
23/09:00pm 34.4 29.7 3.3 14 16.6 SSE 17 20 9 11 1009.4 1004.5 0.0
23/08:30pm 35.4 30.6 2.7 13 17.4 S 17 22 9 12 1009.3 1004.4 0.0
23/08:00pm 36.2 31.0 2.3 12 18.0 S 19 24 10 13 1009.2 1004.2 0.0
23/07:30pm 36.9 32.0 2.1 11 18.4 S 17 24 9 13 1009.0 1004.0 0.0
23/07:00pm 37.5 32.2 1.6 10 19.0 S 19 26 10 14 1008.6 1003.6 0.0
23/06:30pm 38.4 33.3 0.6 9 19.8 S 17 26 9 14 1008.1 1003.2 0.0
23/06:00pm 39.1 33.6 0.8 9 20.2 SSW 19 28 10 15 1007.5 1002.5 0.0
23/05:30pm 39.9 33.8 0.4 8 20.7 SSW 22 32 12 17 1007.4 1002.4 0.0
23/05:00pm 40.6 35.0 -0.3 8 21.4 SSW 19 32 10 17 1006.9 1001.9 0.0
23/04:30pm 41.3 36.0 -0.5 7 21.8 S 17 26 9 14 1006.8 1001.8 0.0
23/04:00pm 40.6 36.6 0.6 8 21.2 S 11 20 6 11 1006.9 1001.9 0.0

Other Formats:

Comma delimited format used in spreadsheet applications
http://www.bom.gov.au/fwo/IDW60801/IDW60801.94461.axf

JavaScript Object Notation format (JSON) in row-major order
http://www.bom.gov.au/fwo/IDW60801/IDW60801.94461.json